Time;durP1;ratioP1;P1;durP2;ratioP2;P2;SDS_P1;SDS_P2;PMS_P1;PMS_P2;Temp;Humidity;BMP_temperature;BMP_pressure;BME280_temperature;BME280_humidity;BME280_pressure;Samples;Min_cycle;Max_cycle;Signal;HPM_P1;HPM_P2
2023/10/24 00:01:19;;;;;;;;;;;18.10;78.20;;;;;;5039299;27;75564;-76
2023/10/24 00:03:47;;;;;;;;;;;18.00;78.10;;;;;;5063820;27;75148;-76
2023/10/24 00:06:15;;;;;;;;;;;18.00;78.10;;;;;;5042176;27;74502;-77
2023/10/24 00:08:40;;;;;;;;;;;18.00;78.20;;;;;;5065045;27;75009;-76
2023/10/24 00:11:06;;;;;;;;;;;18.00;78.30;;;;;;5058089;27;77399;-77
2023/10/24 00:13:32;;;;;;;;;;;18.00;78.20;;;;;;5053707;27;75341;-78
2023/10/24 00:15:58;;;;;;;;;;;18.00;78.20;;;;;;5035063;27;75536;-77
2023/10/24 00:18:24;;;;;;;;;;;18.00;78.20;;;;;;5056760;27;77060;-77
2023/10/24 00:20:49;;;;;;;;;;;17.90;78.50;;;;;;5059127;27;78998;-77
2023/10/24 00:23:15;;;;;;;;;;;17.90;78.30;;;;;;5060216;27;74980;-78
2023/10/24 00:25:40;;;;;;;;;;;18.00;78.40;;;;;;5059882;27;74879;-78
2023/10/24 00:28:06;;;;;;;;;;;17.90;78.30;;;;;;5050610;27;82162;-78
2023/10/24 00:30:31;;;;;;;;;;;17.90;78.20;;;;;;5056131;27;75185;-78
2023/10/24 00:32:57;;;;;;;;;;;17.90;78.30;;;;;;5041825;27;71251;-78
2023/10/24 00:35:22;;;;;;;;;;;17.90;78.30;;;;;;5056060;27;77643;-79
2023/10/24 00:37:48;;;;;;;;;;;17.90;78.30;;;;;;5037592;27;74349;-77
2023/10/24 00:40:13;;;;;;;;;;;17.90;78.30;;;;;;5036382;27;72657;-76
2023/10/24 00:42:39;;;;;;;;;;;17.90;78.30;;;;;;5039164;27;79749;-76
2023/10/24 00:45:05;;;;;;;;;;;17.90;78.20;;;;;;5037875;27;74369;-76
2023/10/24 00:47:31;;;;;;;;;;;17.90;78.30;;;;;;5037452;27;77066;-76
2023/10/24 00:49:57;;;;;;;;;;;17.90;78.30;;;;;;5052388;27;75988;-76
2023/10/24 00:52:22;;;;;;;;;;;17.90;78.40;;;;;;5056071;27;77854;-77
2023/10/24 00:54:48;;;;;;;;;;;17.90;78.30;;;;;;5057698;27;73630;-77
2023/10/24 00:57:14;;;;;;;;;;;17.90;78.40;;;;;;5053398;27;78714;-77
2023/10/24 00:59:40;;;;;;;;;;;17.90;78.30;;;;;;5038953;27;76912;-77
2023/10/24 01:02:07;;;;;;;;;;;17.90;78.40;;;;;;5059312;27;76209;-77
2023/10/24 01:04:33;;;;;;;;;;;17.90;78.40;;;;;;5039613;27;76442;-77
2023/10/24 01:06:59;;;;;;;;;;;17.90;78.40;;;;;;5057147;27;78156;-77
2023/10/24 01:09:25;;;;;;;;;;;17.90;78.50;;;;;;5055783;27;78003;-77
2023/10/24 01:11:51;;;;;;;;;;;17.90;78.50;;;;;;5057010;27;71508;-77
2023/10/24 01:14:17;;;;;;;;;;;17.90;78.40;;;;;;5038162;27;77179;-77
2023/10/24 01:16:43;;;;;;;;;;;17.80;78.40;;;;;;5057315;27;80928;-77
2023/10/24 01:19:09;;;;;;;;;;;17.80;78.40;;;;;;5033092;27;77582;-77
2023/10/24 01:21:34;;;;;;;;;;;17.80;78.40;;;;;;5058126;27;76650;-75
2023/10/24 01:24:00;;;;;;;;;;;17.80;78.40;;;;;;5057368;27;75623;-76
2023/10/24 01:26:26;;;;;;;;;;;17.80;78.40;;;;;;5041747;27;79554;-76
2023/10/24 01:28:51;;;;;;;;;;;17.80;78.40;;;;;;5038293;27;75472;-76
2023/10/24 01:31:17;;;;;;;;;;;17.80;78.30;;;;;;5062724;27;78091;-75
2023/10/24 01:33:42;;;;;;;;;;;17.90;78.50;;;;;;5061794;27;75595;-76
2023/10/24 01:36:08;;;;;;;;;;;17.80;78.30;;;;;;5061709;27;72210;-76
2023/10/24 01:38:33;;;;;;;;;;;17.80;78.40;;;;;;5060438;27;75289;-76
2023/10/24 01:40:59;;;;;;;;;;;17.90;78.40;;;;;;5059356;27;75665;-76
2023/10/24 01:43:24;;;;;;;;;;;17.80;78.40;;;;;;5064629;27;76047;-77
2023/10/24 01:45:50;;;;;;;;;;;17.80;78.30;;;;;;5059431;27;75055;-76
2023/10/24 01:48:15;;;;;;;;;;;17.80;78.30;;;;;;5055780;27;78379;-76
2023/10/24 01:50:41;;;;;;;;;;;17.80;78.30;;;;;;5058179;27;74687;-77
2023/10/24 01:53:06;;;;;;;;;;;17.80;78.40;;;;;;5039003;27;74150;-77
2023/10/24 01:55:32;;;;;;;;;;;17.80;78.50;;;;;;5054702;27;76534;-76
2023/10/24 01:57:57;;;;;;;;;;;17.80;78.40;;;;;;5054439;27;79125;-75
2023/10/24 02:00:23;;;;;;;;;;;17.80;78.30;;;;;;5060031;27;79067;-76
2023/10/24 02:02:48;;;;;;;;;;;17.80;78.50;;;;;;5061104;27;74217;-77
2023/10/24 02:05:14;;;;;;;;;;;17.80;78.30;;;;;;5036451;27;81515;-77
2023/10/24 02:07:39;;;;;;;;;;;17.80;78.30;;;;;;5058318;27;76034;-77
2023/10/24 02:10:05;;;;;;;;;;;17.80;78.40;;;;;;5056147;27;74655;-77
2023/10/24 02:12:31;;;;;;;;;;;17.80;78.40;;;;;;5060790;27;77872;-77
2023/10/24 02:14:56;;;;;;;;;;;17.80;78.40;;;;;;5058744;27;76769;-77
2023/10/24 02:17:22;;;;;;;;;;;17.80;78.30;;;;;;5062996;27;76260;-77
2023/10/24 02:19:47;;;;;;;;;;;17.70;78.30;;;;;;5061377;27;80391;-76
2023/10/24 02:22:13;;;;;;;;;;;17.70;78.40;;;;;;5065916;27;77386;-77
2023/10/24 02:24:39;;;;;;;;;;;17.80;78.50;;;;;;5061705;27;76038;-77
2023/10/24 02:27:04;;;;;;;;;;;17.70;78.40;;;;;;5061007;27;73711;-77
2023/10/24 02:29:33;;;;;;;;;;;17.70;78.40;;;;;;5046490;27;77876;-78
2023/10/24 02:32:00;;;;;;;;;;;17.70;78.40;;;;;;5062139;27;73353;-78
2023/10/24 02:34:25;;;;;;;;;;;17.70;78.50;;;;;;5063871;27;74489;-78
2023/10/24 02:36:51;;;;;;;;;;;17.70;78.50;;;;;;5045025;27;72843;-77
2023/10/24 02:39:16;;;;;;;;;;;17.70;78.50;;;;;;5059581;27;75269;-77
2023/10/24 02:41:42;;;;;;;;;;;17.60;78.50;;;;;;5055307;27;73086;-78
2023/10/24 02:44:07;;;;;;;;;;;17.60;78.70;;;;;;5063917;27;79124;-77
2023/10/24 02:46:33;;;;;;;;;;;17.60;78.60;;;;;;5055715;27;75362;-77
2023/10/24 02:48:58;;;;;;;;;;;17.70;78.60;;;;;;5045991;27;79205;-77
2023/10/24 02:51:24;;;;;;;;;;;17.60;78.50;;;;;;5059275;27;76713;-77
2023/10/24 02:53:49;;;;;;;;;;;17.70;78.60;;;;;;5056701;27;74664;-77
2023/10/24 02:56:15;;;;;;;;;;;17.70;78.60;;;;;;5059440;27;76021;-77
2023/10/24 02:58:40;;;;;;;;;;;17.60;78.80;;;;;;5055233;27;74644;-78
2023/10/24 03:01:06;;;;;;;;;;;17.60;78.50;;;;;;5040424;27;73233;-77
2023/10/24 03:03:32;;;;;;;;;;;17.60;78.40;;;;;;5056595;27;76734;-77
2023/10/24 03:05:57;;;;;;;;;;;17.60;78.40;;;;;;5059336;27;75543;-77
2023/10/24 03:08:23;;;;;;;;;;;17.60;78.50;;;;;;5053365;27;82497;-78
2023/10/24 03:10:48;;;;;;;;;;;17.60;78.40;;;;;;5059885;27;71151;-76
2023/10/24 03:13:14;;;;;;;;;;;17.70;78.50;;;;;;5038013;27;79360;-78
2023/10/24 03:15:41;;;;;;;;;;;17.60;78.40;;;;;;5038001;27;78653;-77
2023/10/24 03:18:06;;;;;;;;;;;17.60;78.50;;;;;;5057629;27;74908;-77
2023/10/24 03:20:32;;;;;;;;;;;17.60;78.40;;;;;;5057455;27;74436;-78
2023/10/24 03:22:57;;;;;;;;;;;17.60;78.40;;;;;;5047808;27;79321;-77
2023/10/24 03:25:24;;;;;;;;;;;17.60;78.40;;;;;;5057848;27;78113;-77
2023/10/24 03:27:53;;;;;;;;;;;17.60;78.40;;;;;;5053796;27;74730;-76
2023/10/24 03:30:19;;;;;;;;;;;17.60;78.40;;;;;;5059550;27;74821;-77
2023/10/24 03:32:45;;;;;;;;;;;17.60;78.40;;;;;;5042010;27;80342;-77
2023/10/24 03:35:10;;;;;;;;;;;17.60;78.40;;;;;;5057461;27;77772;-77
2023/10/24 03:37:36;;;;;;;;;;;17.60;78.30;;;;;;5057764;27;76082;-77
2023/10/24 03:40:02;;;;;;;;;;;17.60;78.30;;;;;;5040764;27;75122;-74
2023/10/24 03:42:29;;;;;;;;;;;17.50;78.30;;;;;;5050866;27;73034;-74
2023/10/24 03:44:54;;;;;;;;;;;17.60;78.40;;;;;;5061982;27;74092;-76
2023/10/24 03:47:20;;;;;;;;;;;17.60;78.40;;;;;;5052828;27;75568;-75
2023/10/24 03:49:45;;;;;;;;;;;17.50;78.30;;;;;;5040453;27;72717;-74
2023/10/24 03:52:11;;;;;;;;;;;17.50;78.40;;;;;;5041458;27;77360;-75
2023/10/24 03:54:36;;;;;;;;;;;17.50;78.40;;;;;;5049869;27;74591;-74
2023/10/24 03:57:02;;;;;;;;;;;17.50;78.40;;;;;;5060765;27;77631;-75
2023/10/24 03:59:27;;;;;;;;;;;17.50;78.40;;;;;;5049615;27;76491;-77
2023/10/24 04:01:53;;;;;;;;;;;17.50;78.40;;;;;;5039320;27;78699;-76
2023/10/24 04:04:18;;;;;;;;;;;17.50;78.50;;;;;;5058247;27;76354;-76
2023/10/24 04:06:44;;;;;;;;;;;17.50;78.60;;;;;;5054867;27;75811;-75
2023/10/24 04:09:09;;;;;;;;;;;17.40;78.60;;;;;;5058793;27;76921;-78
2023/10/24 04:11:35;;;;;;;;;;;17.40;78.60;;;;;;5054701;27;78126;-75
2023/10/24 04:14:02;;;;;;;;;;;17.40;78.60;;;;;;5053601;27;73046;-76
2023/10/24 04:16:27;;;;;;;;;;;17.40;78.70;;;;;;5052287;27;81185;-75
2023/10/24 04:18:53;;;;;;;;;;;17.40;78.50;;;;;;5058951;27;76062;-77
2023/10/24 04:21:18;;;;;;;;;;;17.40;78.60;;;;;;5055457;27;77344;-76
2023/10/24 04:23:44;;;;;;;;;;;17.40;78.80;;;;;;5056727;27;74777;-76
2023/10/24 04:26:10;;;;;;;;;;;17.40;78.70;;;;;;5037440;27;74431;-76
2023/10/24 04:28:36;;;;;;;;;;;17.40;78.80;;;;;;5058694;27;74063;-76
2023/10/24 04:31:02;;;;;;;;;;;17.40;78.90;;;;;;5057928;27;75140;-76
2023/10/24 04:33:27;;;;;;;;;;;17.40;78.80;;;;;;5052092;27;75830;-77
2023/10/24 04:35:53;;;;;;;;;;;17.30;78.80;;;;;;5059150;27;75084;-77
2023/10/24 04:38:18;;;;;;;;;;;17.40;78.70;;;;;;5054886;27;73535;-76
2023/10/24 04:40:44;;;;;;;;;;;17.40;78.80;;;;;;5063445;27;75001;-78
2023/10/24 04:43:10;;;;;;;;;;;17.40;78.90;;;;;;5065446;27;72981;-77
2023/10/24 04:45:36;;;;;;;;;;;17.30;78.70;;;;;;5062762;27;77813;-78
2023/10/24 04:48:02;;;;;;;;;;;17.30;78.70;;;;;;5062734;27;74842;-78
2023/10/24 04:50:28;;;;;;;;;;;17.30;78.70;;;;;;5062642;27;75198;-75
2023/10/24 04:52:54;;;;;;;;;;;17.40;78.70;;;;;;5041241;27;74693;-76
2023/10/24 04:55:20;;;;;;;;;;;17.30;78.70;;;;;;5039922;27;80219;-75
2023/10/24 04:57:46;;;;;;;;;;;17.40;78.60;;;;;;5060865;27;73374;-76
2023/10/24 05:00:11;;;;;;;;;;;17.40;78.70;;;;;;5059915;27;74316;-78
2023/10/24 05:02:41;;;;;;;;;;;17.40;78.60;;;;;;5059296;27;75759;-78
2023/10/24 05:05:06;;;;;;;;;;;17.40;78.50;;;;;;5061767;27;74165;-78
2023/10/24 05:07:32;;;;;;;;;;;17.40;78.60;;;;;;5063280;27;73938;-78
2023/10/24 05:09:58;;;;;;;;;;;17.40;78.70;;;;;;5063235;27;83204;-81
2023/10/24 05:12:23;;;;;;;;;;;17.40;78.70;;;;;;5063892;27;77712;-80
2023/10/24 05:14:49;;;;;;;;;;;17.40;78.70;;;;;;5062481;27;75179;-80
2023/10/24 05:17:14;;;;;;;;;;;17.40;78.90;;;;;;5065433;27;71597;-80
2023/10/24 05:19:41;;;;;;;;;;;17.40;79.00;;;;;;5061209;27;79245;-80
2023/10/24 05:22:07;;;;;;;;;;;17.40;79.10;;;;;;5042351;27;77653;-80
2023/10/24 05:24:33;;;;;;;;;;;17.40;79.00;;;;;;5062904;27;73381;-80
2023/10/24 05:26:59;;;;;;;;;;;17.30;79.00;;;;;;5066636;27;72212;-80
2023/10/24 05:29:24;;;;;;;;;;;17.40;79.00;;;;;;5050348;27;79897;-80
2023/10/24 05:31:50;;;;;;;;;;;17.40;78.90;;;;;;5066964;27;76495;-79
2023/10/24 05:34:15;;;;;;;;;;;17.40;78.90;;;;;;5059091;27;75293;-79
2023/10/24 05:36:41;;;;;;;;;;;17.40;78.90;;;;;;5062958;27;73509;-79
2023/10/24 05:39:06;;;;;;;;;;;17.40;78.90;;;;;;5056888;27;75194;-79
2023/10/24 05:41:32;;;;;;;;;;;17.40;79.00;;;;;;5058193;27;73191;-79
2023/10/24 05:43:58;;;;;;;;;;;17.40;79.00;;;;;;5055966;27;77550;-79
2023/10/24 05:46:24;;;;;;;;;;;17.40;79.00;;;;;;5057950;27;75320;-79
2023/10/24 05:48:49;;;;;;;;;;;17.40;79.10;;;;;;5054235;27;76009;-80
2023/10/24 05:51:24;;;;;;;;;;;17.40;78.90;;;;;;5064304;27;76369;-80
2023/10/24 05:53:50;;;;;;;;;;;17.30;79.00;;;;;;5057709;27;75027;-80
2023/10/24 05:56:16;;;;;;;;;;;17.30;79.10;;;;;;5039285;27;75104;-80
2023/10/24 05:58:41;;;;;;;;;;;17.30;79.30;;;;;;5061648;27;79096;-78
2023/10/24 06:01:07;;;;;;;;;;;17.30;79.20;;;;;;5058434;27;76457;-78
2023/10/24 06:03:33;;;;;;;;;;;17.30;79.30;;;;;;5040192;27;72606;-79
2023/10/24 06:05:59;;;;;;;;;;;17.30;79.40;;;;;;5060776;27;72777;-80
2023/10/24 06:08:24;;;;;;;;;;;17.30;79.80;;;;;;5057344;27;73615;-80
2023/10/24 06:10:56;;;;;;;;;;;17.30;80.50;;;;;;5045217;27;72571;-80
2023/10/24 06:13:22;;;;;;;;;;;17.30;80.70;;;;;;5057593;27;74768;-80
2023/10/24 06:15:47;;;;;;;;;;;17.40;80.40;;;;;;5046850;27;72929;-80
2023/10/24 06:18:13;;;;;;;;;;;17.30;80.40;;;;;;5065126;27;76123;-79
2023/10/24 06:20:38;;;;;;;;;;;17.30;80.40;;;;;;5064971;27;75325;-80
2023/10/24 06:23:05;;;;;;;;;;;17.40;80.20;;;;;;5045585;27;77690;-80
2023/10/24 06:25:38;;;;;;;;;;;17.30;80.20;;;;;;5065896;27;77509;-80
2023/10/24 06:28:03;;;;;;;;;;;17.30;80.20;;;;;;5060263;27;71820;-80
2023/10/24 06:30:29;;;;;;;;;;;17.30;80.00;;;;;;5063839;27;77650;-80
2023/10/24 06:32:55;;;;;;;;;;;17.30;80.00;;;;;;5061523;27;77994;-81
2023/10/24 06:35:20;;;;;;;;;;;17.40;80.00;;;;;;5038265;27;72606;-79
2023/10/24 06:37:46;;;;;;;;;;;17.30;79.80;;;;;;5069149;27;78105;-80
2023/10/24 06:40:12;;;;;;;;;;;17.30;79.80;;;;;;5062998;27;72015;-80
2023/10/24 06:42:38;;;;;;;;;;;17.30;79.70;;;;;;5052040;27;74584;-83
2023/10/24 06:45:04;;;;;;;;;;;17.30;79.70;;;;;;5063801;27;76328;-83
2023/10/24 06:47:29;;;;;;;;;;;17.30;79.60;;;;;;5065018;27;74873;-83
2023/10/24 06:49:55;;;;;;;;;;;17.30;79.60;;;;;;5042735;27;72777;-81
2023/10/24 06:52:20;;;;;;;;;;;17.40;79.60;;;;;;5041294;27;75898;-83
2023/10/24 06:54:45;;;;;;;;;;;17.30;79.60;;;;;;5047606;27;73483;-82
2023/10/24 06:57:11;;;;;;;;;;;17.30;79.60;;;;;;5063549;27;74908;-81
2023/10/24 06:59:36;;;;;;;;;;;17.30;79.60;;;;;;5061673;27;73699;-82
2023/10/24 07:02:02;;;;;;;;;;;17.30;79.60;;;;;;5060316;27;72701;-81
2023/10/24 07:04:28;;;;;;;;;;;17.40;79.60;;;;;;5066277;27;73709;-83
2023/10/24 07:06:53;;;;;;;;;;;17.40;79.50;;;;;;5068931;27;75706;-82
2023/10/24 07:09:19;;;;;;;;;;;17.40;79.80;;;;;;5057275;27;72513;-82
2023/10/24 07:11:44;;;;;;;;;;;17.40;79.50;;;;;;5059897;27;75550;-82
2023/10/24 07:14:10;;;;;;;;;;;17.40;79.50;;;;;;5067955;27;74801;-83
2023/10/24 07:16:35;;;;;;;;;;;17.40;79.50;;;;;;5059542;27;74491;-81
2023/10/24 07:19:01;;;;;;;;;;;17.40;79.40;;;;;;5061988;27;76117;-81
2023/10/24 07:21:26;;;;;;;;;;;17.40;79.30;;;;;;5047785;27;74359;-84
2023/10/24 07:23:54;;;;;;;;;;;17.40;79.60;;;;;;5047814;27;73467;-84
2023/10/24 07:26:20;;;;;;;;;;;17.40;79.60;;;;;;5046307;27;75935;-84
2023/10/24 07:28:45;;;;;;;;;;;17.40;79.70;;;;;;5061652;27;74234;-85
2023/10/24 07:31:11;;;;;;;;;;;17.40;79.50;;;;;;5068197;27;72543;-84
2023/10/24 07:33:36;;;;;;;;;;;17.40;79.50;;;;;;5062468;27;73974;-81
2023/10/24 07:36:03;;;;;;;;;;;17.40;79.50;;;;;;5061338;27;76566;-81
2023/10/24 07:38:28;;;;;;;;;;;17.40;79.40;;;;;;5060613;27;72516;-80
2023/10/24 07:40:54;;;;;;;;;;;17.40;79.30;;;;;;5057996;27;73852;-81
2023/10/24 07:43:19;;;;;;;;;;;17.40;79.40;;;;;;5064421;27;70721;-84
2023/10/24 07:45:48;;;;;;;;;;;17.40;79.30;;;;;;5063424;27;74490;-85
2023/10/24 07:48:13;;;;;;;;;;;17.40;79.30;;;;;;5065485;27;73464;-84
2023/10/24 07:50:39;;;;;;;;;;;17.40;79.60;;;;;;5047174;27;75552;-83
2023/10/24 07:53:04;;;;;;;;;;;17.40;79.40;;;;;;5061484;27;76511;-83
2023/10/24 07:55:30;;;;;;;;;;;17.40;79.50;;;;;;5039902;27;78797;-83
2023/10/24 07:57:55;;;;;;;;;;;17.40;79.50;;;;;;5044366;27;75875;-83
2023/10/24 08:00:21;;;;;;;;;;;17.40;79.40;;;;;;5046277;27;76898;-83
2023/10/24 08:02:46;;;;;;;;;;;17.40;79.50;;;;;;5042521;27;79734;-83
2023/10/24 08:05:12;;;;;;;;;;;17.40;79.50;;;;;;5061226;27;73088;-83
2023/10/24 08:07:37;;;;;;;;;;;17.40;79.40;;;;;;5044207;27;73853;-83
2023/10/24 08:10:03;;;;;;;;;;;17.40;79.30;;;;;;5046499;27;76644;-83
2023/10/24 08:12:28;;;;;;;;;;;17.40;79.20;;;;;;5048531;27;73922;-83
2023/10/24 08:14:54;;;;;;;;;;;17.40;79.20;;;;;;5039937;27;77163;-83
2023/10/24 08:17:19;;;;;;;;;;;17.40;79.20;;;;;;5048508;27;72664;-83
2023/10/24 08:19:45;;;;;;;;;;;17.40;79.00;;;;;;5051804;27;73784;-83
2023/10/24 08:22:11;;;;;;;;;;;17.40;79.00;;;;;;5066108;27;76710;-82
2023/10/24 08:24:36;;;;;;;;;;;17.40;79.00;;;;;;5043732;27;79752;-84
2023/10/24 08:27:02;;;;;;;;;;;17.40;79.00;;;;;;5045547;27;77872;-85
2023/10/24 08:29:27;;;;;;;;;;;17.40;79.10;;;;;;5051973;27;75386;-84
2023/10/24 08:31:53;;;;;;;;;;;17.40;78.90;;;;;;5092995;27;72611;-84
2023/10/24 08:34:19;;;;;;;;;;;17.40;79.00;;;;;;5090333;27;76097;-85
2023/10/24 08:36:45;;;;;;;;;;;17.40;79.00;;;;;;5064358;27;73120;-84
2023/10/24 08:39:10;;;;;;;;;;;17.40;79.00;;;;;;5051665;27;73076;-84
2023/10/24 08:41:36;;;;;;;;;;;17.40;79.00;;;;;;5057118;27;75144;-84
2023/10/24 08:44:02;;;;;;;;;;;17.40;79.00;;;;;;5062161;27;75504;-83
2023/10/24 08:46:27;;;;;;;;;;;17.40;79.00;;;;;;5042252;27;71860;-84
2023/10/24 08:48:53;;;;;;;;;;;17.40;79.00;;;;;;5058342;27;75537;-83
2023/10/24 08:51:19;;;;;;;;;;;17.50;79.00;;;;;;5044176;27;75740;-84
2023/10/24 08:53:44;;;;;;;;;;;17.40;78.90;;;;;;5052728;27;81363;-83
2023/10/24 08:56:10;;;;;;;;;;;17.40;78.90;;;;;;5050588;27;72603;-83
2023/10/24 08:58:37;;;;;;;;;;;17.40;78.90;;;;;;5057985;27;71399;-84
2023/10/24 09:01:02;;;;;;;;;;;17.40;78.90;;;;;;5067483;27;72431;-84
2023/10/24 09:03:28;;;;;;;;;;;17.40;78.70;;;;;;5042913;27;77382;-83
2023/10/24 09:05:55;;;;;;;;;;;17.40;78.70;;;;;;5066406;27;72366;-84
2023/10/24 09:08:20;;;;;;;;;;;17.50;78.80;;;;;;5061166;27;71080;-83
2023/10/24 09:10:46;;;;;;;;;;;17.50;78.70;;;;;;5040079;27;74666;-84
2023/10/24 09:13:11;;;;;;;;;;;17.50;78.70;;;;;;5059489;27;80087;-83
2023/10/24 09:15:39;;;;;;;;;;;17.50;78.70;;;;;;5040162;27;74137;-83
2023/10/24 09:18:04;;;;;;;;;;;17.50;78.70;;;;;;5054505;27;75379;-82
2023/10/24 09:20:33;;;;;;;;;;;17.50;78.60;;;;;;5057097;27;75102;-82
2023/10/24 09:23:03;;;;;;;;;;;17.50;78.60;;;;;;5058855;27;74404;-83
2023/10/24 09:25:29;;;;;;;;;;;17.50;79.30;;;;;;5039768;27;75925;-83
2023/10/24 09:28:12;;;;;;;;;;;17.50;78.50;;;;;;5059469;27;73582;-83
2023/10/24 09:30:39;;;;;;;;;;;17.50;78.40;;;;;;5045258;27;79143;-84
2023/10/24 09:33:04;;;;;;;;;;;17.50;78.40;;;;;;5043936;27;80752;-83
2023/10/24 09:35:30;;;;;;;;;;;17.50;78.40;;;;;;5046262;27;75355;-83
2023/10/24 09:37:55;;;;;;;;;;;17.50;78.50;;;;;;5061282;27;78214;-83
2023/10/24 09:40:31;;;;;;;;;;;17.50;78.40;;;;;;5047029;27;75153;-83
2023/10/24 09:42:58;;;;;;;;;;;17.50;78.40;;;;;;5062554;27;80838;-83
2023/10/24 09:45:24;;;;;;;;;;;17.50;78.30;;;;;;5059503;27;76812;-84
2023/10/24 09:47:51;;;;;;;;;;;17.50;78.40;;;;;;5062286;27;72843;-81
2023/10/24 09:50:17;;;;;;;;;;;17.50;78.40;;;;;;5039567;27;71341;-82
2023/10/24 09:52:43;;;;;;;;;;;17.50;78.40;;;;;;5061589;27;77895;-81
2023/10/24 09:55:09;;;;;;;;;;;17.50;78.40;;;;;;5063172;27;72718;-83
2023/10/24 09:57:35;;;;;;;;;;;17.60;78.50;;;;;;5041650;27;73854;-81
2023/10/24 10:00:03;;;;;;;;;;;17.60;78.50;;;;;;5044468;27;76132;-82
2023/10/24 10:02:29;;;;;;;;;;;17.60;78.40;;;;;;5055391;27;79432;-82
2023/10/24 10:04:54;;;;;;;;;;;17.70;78.60;;;;;;5043158;27;80405;-83
2023/10/24 10:07:22;;;;;;;;;;;17.70;78.70;;;;;;5047226;27;76217;-82
2023/10/24 10:09:51;;;;;;;;;;;17.70;78.60;;;;;;5062324;27;76253;-81
2023/10/24 10:12:17;;;;;;;;;;;17.70;78.90;;;;;;5048081;27;80693;-81
2023/10/24 10:15:01;;;;;;;;;;;17.70;79.10;;;;;;5061255;27;72950;-82
2023/10/24 10:17:46;;;;;;;;;;;17.70;78.90;;;;;;5046423;27;78011;-82
2023/10/24 10:20:32;;;;;;;;;;;17.80;79.50;;;;;;5060491;27;73389;-82
2023/10/24 10:23:08;;;;;;;;;;;17.80;79.80;;;;;;5063523;27;73043;-82
2023/10/24 10:25:45;;;;;;;;;;;17.80;79.70;;;;;;5059471;27;82110;-83
2023/10/24 10:28:35;;;;;;;;;;;17.90;79.50;;;;;;5067854;27;75761;-81
2023/10/24 10:31:13;;;;;;;;;;;17.90;79.40;;;;;;5047220;27;71119;-82
2023/10/24 10:33:39;;;;;;;;;;;18.00;79.30;;;;;;5059194;27;76082;-82
2023/10/24 10:36:08;;;;;;;;;;;18.00;79.50;;;;;;5049202;27;75908;-83
2023/10/24 10:38:49;;;;;;;;;;;18.00;79.40;;;;;;5053205;27;76592;-82
2023/10/24 10:41:23;;;;;;;;;;;18.00;79.30;;;;;;5064619;27;74765;-83
2023/10/24 10:43:50;;;;;;;;;;;18.00;79.20;;;;;;5047913;27;75350;-82
2023/10/24 10:46:20;;;;;;;;;;;18.00;79.50;;;;;;5063463;27;70833;-82
2023/10/24 10:48:48;;;;;;;;;;;18.00;79.50;;;;;;5061611;27;72536;-82
2023/10/24 10:51:22;;;;;;;;;;;18.10;79.40;;;;;;5066157;27;73937;-82
2023/10/24 10:53:58;;;;;;;;;;;18.10;79.60;;;;;;5064286;27;74819;-82
2023/10/24 10:56:33;;;;;;;;;;;18.10;79.60;;;;;;5060005;27;75652;-83
2023/10/24 10:59:08;;;;;;;;;;;18.10;79.70;;;;;;5064577;27;73649;-83
2023/10/24 11:01:39;;;;;;;;;;;18.00;79.60;;;;;;5049970;27;76881;-83
2023/10/24 11:04:13;;;;;;;;;;;18.10;79.70;;;;;;5048726;27;74262;-83
2023/10/24 11:06:41;;;;;;;;;;;18.20;79.60;;;;;;5060632;27;79822;-83
2023/10/24 11:09:06;;;;;;;;;;;18.20;79.60;;;;;;5044791;27;76323;-83
2023/10/24 11:11:33;;;;;;;;;;;18.20;79.60;;;;;;5067123;27;72901;-83
2023/10/24 11:14:15;;;;;;;;;;;18.20;79.60;;;;;;5048177;27;80368;-83
2023/10/24 11:16:41;;;;;;;;;;;18.20;79.60;;;;;;5046364;27;73093;-83
2023/10/24 11:19:06;;;;;;;;;;;18.30;79.70;;;;;;5043610;27;75663;-83
2023/10/24 11:21:32;;;;;;;;;;;18.30;79.60;;;;;;5047228;27;75878;-83
2023/10/24 11:23:58;;;;;;;;;;;18.30;79.60;;;;;;5042249;27;77566;-82
2023/10/24 11:26:24;;;;;;;;;;;18.30;79.60;;;;;;5052432;27;73422;-83
2023/10/24 11:28:51;;;;;;;;;;;18.30;79.80;;;;;;5044709;27;74364;-83
2023/10/24 11:31:21;;;;;;;;;;;18.30;79.80;;;;;;5066458;27;74293;-83
2023/10/24 11:33:47;;;;;;;;;;;18.30;79.70;;;;;;5069587;27;75756;-83
2023/10/24 11:36:12;;;;;;;;;;;18.40;79.60;;;;;;5092089;27;73400;-83
2023/10/24 11:38:38;;;;;;;;;;;18.40;79.60;;;;;;5069791;27;71127;-83
2023/10/24 11:41:03;;;;;;;;;;;18.40;79.50;;;;;;5067039;27;71954;-84
2023/10/24 11:43:29;;;;;;;;;;;18.40;79.60;;;;;;5067877;27;75280;-83
2023/10/24 11:45:55;;;;;;;;;;;18.40;79.50;;;;;;5044460;27;76408;-82
2023/10/24 11:48:21;;;;;;;;;;;18.50;79.40;;;;;;5042003;27;75010;-83
2023/10/24 11:50:46;;;;;;;;;;;18.50;79.30;;;;;;5042063;27;74606;-84
2023/10/24 11:53:19;;;;;;;;;;;18.60;79.30;;;;;;5039793;27;78117;-83
2023/10/24 11:55:44;;;;;;;;;;;18.60;79.30;;;;;;5059865;27;74524;-83
2023/10/24 11:58:11;;;;;;;;;;;18.50;79.20;;;;;;5043327;27;73325;-83
2023/10/24 12:00:37;;;;;;;;;;;18.50;79.40;;;;;;5063714;27;71833;-83
2023/10/24 12:03:04;;;;;;;;;;;18.60;79.20;;;;;;5046848;27;80431;-83
2023/10/24 12:05:30;;;;;;;;;;;18.60;79.00;;;;;;5057379;27;72426;-84
2023/10/24 12:07:59;;;;;;;;;;;18.60;78.80;;;;;;5060099;27;76141;-84
2023/10/24 12:10:32;;;;;;;;;;;18.60;78.90;;;;;;5050402;27;73253;-83
2023/10/24 12:13:01;;;;;;;;;;;18.60;78.70;;;;;;5042740;27;75006;-84
2023/10/24 12:15:27;;;;;;;;;;;18.60;78.90;;;;;;5041499;27;75187;-83
2023/10/24 12:17:53;;;;;;;;;;;18.70;78.80;;;;;;5045413;27;74775;-84
2023/10/24 12:20:20;;;;;;;;;;;18.70;78.80;;;;;;5059170;27;75312;-83
2023/10/24 12:22:47;;;;;;;;;;;18.70;78.60;;;;;;5061004;27;75323;-83
2023/10/24 12:25:17;;;;;;;;;;;18.70;78.40;;;;;;5046229;27;73395;-83
2023/10/24 12:27:43;;;;;;;;;;;18.70;78.10;;;;;;5038018;27;73820;-83
2023/10/24 12:30:08;;;;;;;;;;;18.70;78.30;;;;;;5052575;27;73948;-83
2023/10/24 12:32:34;;;;;;;;;;;18.80;78.20;;;;;;5040035;27;75766;-83
2023/10/24 12:34:59;;;;;;;;;;;18.80;78.10;;;;;;5048459;27;73594;-83
2023/10/24 12:37:25;;;;;;;;;;;18.80;78.10;;;;;;5046151;27;73258;-83
2023/10/24 12:39:53;;;;;;;;;;;18.80;77.90;;;;;;5042078;27;73074;-83
2023/10/24 12:42:18;;;;;;;;;;;18.80;78.00;;;;;;5044053;27;77399;-84
2023/10/24 12:44:44;;;;;;;;;;;18.80;77.70;;;;;;5064283;27;73166;-84
2023/10/24 12:47:11;;;;;;;;;;;18.80;77.70;;;;;;5050555;27;72117;-84
2023/10/24 12:49:37;;;;;;;;;;;18.90;77.60;;;;;;5046213;27;73797;-84
2023/10/24 12:52:03;;;;;;;;;;;18.90;77.50;;;;;;5044506;27;77286;-84
2023/10/24 12:54:28;;;;;;;;;;;18.80;77.50;;;;;;5059800;27;75012;-83
2023/10/24 12:56:54;;;;;;;;;;;18.80;77.50;;;;;;5043185;27;76139;-84
2023/10/24 12:59:19;;;;;;;;;;;18.80;77.50;;;;;;5063176;27;73160;-83
2023/10/24 13:01:45;;;;;;;;;;;18.80;77.60;;;;;;5045881;27;76414;-83
2023/10/24 13:04:10;;;;;;;;;;;18.80;77.70;;;;;;5044630;27;73978;-84
2023/10/24 13:06:36;;;;;;;;;;;18.80;77.70;;;;;;5040052;27;75727;-84
2023/10/24 13:09:02;;;;;;;;;;;18.80;77.80;;;;;;5059585;27;73235;-83
2023/10/24 13:11:28;;;;;;;;;;;18.80;77.70;;;;;;5065810;27;75463;-83
2023/10/24 13:13:53;;;;;;;;;;;18.70;77.70;;;;;;5048637;27;73338;-84
2023/10/24 13:16:19;;;;;;;;;;;18.70;77.80;;;;;;5040575;27;78893;-83
2023/10/24 13:18:44;;;;;;;;;;;18.80;77.70;;;;;;5046188;27;73988;-84
2023/10/24 13:21:10;;;;;;;;;;;18.70;77.90;;;;;;5056614;27;77435;-85
2023/10/24 13:23:35;;;;;;;;;;;18.70;78.00;;;;;;5044177;27;78858;-82
2023/10/24 13:26:01;;;;;;;;;;;18.70;77.90;;;;;;5039279;27;74679;-85
2023/10/24 13:28:26;;;;;;;;;;;18.60;78.00;;;;;;5063060;27;72131;-84
2023/10/24 13:30:52;;;;;;;;;;;18.60;78.10;;;;;;5048451;27;78526;-84
2023/10/24 13:33:18;;;;;;;;;;;18.60;78.40;;;;;;5050876;27;75762;-84
2023/10/24 13:35:43;;;;;;;;;;;18.60;78.40;;;;;;5041726;27;79647;-84
2023/10/24 13:38:09;;;;;;;;;;;18.60;78.40;;;;;;5043730;27;71922;-84
2023/10/24 13:40:34;;;;;;;;;;;18.60;78.40;;;;;;5042850;27;80343;-84
2023/10/24 13:43:00;;;;;;;;;;;18.60;78.40;;;;;;5047147;27;73131;-83
2023/10/24 13:45:26;;;;;;;;;;;18.60;78.40;;;;;;5046050;27;73192;-83
2023/10/24 13:47:52;;;;;;;;;;;18.60;78.40;;;;;;5046192;27;74590;-83
2023/10/24 13:50:17;;;;;;;;;;;18.50;78.50;;;;;;5044882;27;81062;-84
2023/10/24 13:52:43;;;;;;;;;;;18.60;78.60;;;;;;5040803;27;73876;-83
2023/10/24 13:55:08;;;;;;;;;;;18.50;78.80;;;;;;5040869;27;75192;-81
2023/10/24 13:57:34;;;;;;;;;;;18.50;78.80;;;;;;5040607;27;73085;-82
2023/10/24 13:59:59;;;;;;;;;;;18.50;78.80;;;;;;5042731;27;74846;-82
2023/10/24 14:02:25;;;;;;;;;;;18.50;78.60;;;;;;5060604;27;80508;-82
2023/10/24 14:04:50;;;;;;;;;;;18.50;78.50;;;;;;5065042;27;74192;-81
2023/10/24 14:07:16;;;;;;;;;;;18.50;78.40;;;;;;5044762;27;73305;-81
2023/10/24 14:09:41;;;;;;;;;;;18.50;78.50;;;;;;5050112;27;77980;-82
2023/10/24 14:12:07;;;;;;;;;;;18.50;78.60;;;;;;5044378;27;74777;-81